sensor_id;sensor_type;location;lat;lon;timestamp;temperature;humidity
70867;HTU21D;58487;53.474;49.470;2023-05-07T00:00:58;6.63;118.99
70867;HTU21D;58487;53.474;49.470;2023-05-07T00:03:25;6.58;118.99
70867;HTU21D;58487;53.474;49.470;2023-05-07T00:05:52;6.55;118.99
70867;HTU21D;58487;53.474;49.470;2023-05-07T00:08:18;6.56;118.99
70867;HTU21D;58487;53.474;49.470;2023-05-07T00:10:46;6.54;118.99
70867;HTU21D;58487;53.474;49.470;2023-05-07T00:13:12;6.52;118.99
70867;HTU21D;58487;53.474;49.470;2023-05-07T00:15:38;6.55;118.99
70867;HTU21D;58487;53.474;49.470;2023-05-07T00:18:05;6.49;118.99
70867;HTU21D;58487;53.474;49.470;2023-05-07T00:20:31;6.42;118.99
70867;HTU21D;58487;53.474;49.470;2023-05-07T00:22:57;6.41;118.99
70867;HTU21D;58487;53.474;49.470;2023-05-07T00:25:23;6.38;118.99
70867;HTU21D;58487;53.474;49.470;2023-05-07T00:27:49;6.27;118.99
70867;HTU21D;58487;53.474;49.470;2023-05-07T00:30:16;6.19;118.99
70867;HTU21D;58487;53.474;49.470;2023-05-07T00:32:42;6.08;118.99
70867;HTU21D;58487;53.474;49.470;2023-05-07T00:35:11;6.06;118.99
70867;HTU21D;58487;53.474;49.470;2023-05-07T00:37:37;5.97;118.99
70867;HTU21D;58487;53.474;49.470;2023-05-07T00:40:04;5.90;118.99
70867;HTU21D;58487;53.474;49.470;2023-05-07T00:42:33;5.90;118.99
70867;HTU21D;58487;53.474;49.470;2023-05-07T00:44:59;5.90;118.99
70867;HTU21D;58487;53.474;49.470;2023-05-07T00:47:25;5.83;118.99
70867;HTU21D;58487;53.474;49.470;2023-05-07T00:49:52;5.83;118.99
70867;HTU21D;58487;53.474;49.470;2023-05-07T00:52:20;5.79;118.99
70867;HTU21D;58487;53.474;49.470;2023-05-07T00:54:47;5.77;118.99
70867;HTU21D;58487;53.474;49.470;2023-05-07T00:57:14;5.68;118.99
70867;HTU21D;58487;53.474;49.470;2023-05-07T00:59:41;5.64;118.99
70867;HTU21D;58487;53.474;49.470;2023-05-07T01:02:07;5.60;118.99
70867;HTU21D;58487;53.474;49.470;2023-05-07T01:04:34;5.60;118.99
70867;HTU21D;58487;53.474;49.470;2023-05-07T01:07:01;5.60;118.99
70867;HTU21D;58487;53.474;49.470;2023-05-07T01:09:28;5.60;118.99
70867;HTU21D;58487;53.474;49.470;2023-05-07T01:11:56;5.57;118.99
70867;HTU21D;58487;53.474;49.470;2023-05-07T01:14:23;5.55;118.99
70867;HTU21D;58487;53.474;49.470;2023-05-07T01:16:51;5.55;118.99
70867;HTU21D;58487;53.474;49.470;2023-05-07T01:19:18;5.48;118.99
70867;HTU21D;58487;53.474;49.470;2023-05-07T01:21:46;5.45;118.99
70867;HTU21D;58487;53.474;49.470;2023-05-07T01:24:14;5.40;118.99
70867;HTU21D;58487;53.474;49.470;2023-05-07T01:26:41;5.40;118.99
70867;HTU21D;58487;53.474;49.470;2023-05-07T01:29:08;5.42;118.99
70867;HTU21D;58487;53.474;49.470;2023-05-07T01:31:34;5.42;118.99
70867;HTU21D;58487;53.474;49.470;2023-05-07T01:34:03;5.35;118.99
70867;HTU21D;58487;53.474;49.470;2023-05-07T01:36:32;5.32;118.99
70867;HTU21D;58487;53.474;49.470;2023-05-07T01:38:59;5.30;118.99
70867;HTU21D;58487;53.474;49.470;2023-05-07T01:41:25;5.27;118.99
70867;HTU21D;58487;53.474;49.470;2023-05-07T01:43:52;5.27;118.99
70867;HTU21D;58487;53.474;49.470;2023-05-07T01:46:19;5.31;118.99
70867;HTU21D;58487;53.474;49.470;2023-05-07T01:48:46;5.28;118.99
70867;HTU21D;58487;53.474;49.470;2023-05-07T01:51:12;5.28;118.99
70867;HTU21D;58487;53.474;49.470;2023-05-07T01:53:39;5.27;118.99
70867;HTU21D;58487;53.474;49.470;2023-05-07T01:56:07;5.26;118.99
70867;HTU21D;58487;53.474;49.470;2023-05-07T01:58:33;5.27;118.99
70867;HTU21D;58487;53.474;49.470;2023-05-07T02:00:59;5.27;118.99
70867;HTU21D;58487;53.474;49.470;2023-05-07T02:03:25;5.30;118.99
70867;HTU21D;58487;53.474;49.470;2023-05-07T02:05:52;5.36;118.99
70867;HTU21D;58487;53.474;49.470;2023-05-07T02:08:18;5.46;118.99
70867;HTU21D;58487;53.474;49.470;2023-05-07T02:10:44;5.45;118.99
70867;HTU21D;58487;53.474;49.470;2023-05-07T02:13:10;5.52;118.99
70867;HTU21D;58487;53.474;49.470;2023-05-07T02:15:36;5.52;118.99
70867;HTU21D;58487;53.474;49.470;2023-05-07T02:18:04;5.57;118.99
70867;HTU21D;58487;53.474;49.470;2023-05-07T02:20:32;5.52;118.99
70867;HTU21D;58487;53.474;49.470;2023-05-07T02:22:58;5.62;118.99
70867;HTU21D;58487;53.474;49.470;2023-05-07T02:25:24;5.60;118.99
70867;HTU21D;58487;53.474;49.470;2023-05-07T02:27:50;5.64;118.99
70867;HTU21D;58487;53.474;49.470;2023-05-07T02:30:17;5.67;118.99
70867;HTU21D;58487;53.474;49.470;2023-05-07T02:32:43;5.68;118.99
70867;HTU21D;58487;53.474;49.470;2023-05-07T02:35:09;5.70;118.99
70867;HTU21D;58487;53.474;49.470;2023-05-07T02:37:36;5.70;118.99
70867;HTU21D;58487;53.474;49.470;2023-05-07T02:40:02;5.70;118.99
70867;HTU21D;58487;53.474;49.470;2023-05-07T02:42:30;5.68;118.99
70867;HTU21D;58487;53.474;49.470;2023-05-07T02:44:56;5.75;118.99
70867;HTU21D;58487;53.474;49.470;2023-05-07T02:47:22;5.84;118.99
70867;HTU21D;58487;53.474;49.470;2023-05-07T02:49:49;5.87;118.99
70867;HTU21D;58487;53.474;49.470;2023-05-07T02:52:15;5.87;118.99
70867;HTU21D;58487;53.474;49.470;2023-05-07T02:54:41;5.98;118.99
70867;HTU21D;58487;53.474;49.470;2023-05-07T02:57:07;6.01;118.99
70867;HTU21D;58487;53.474;49.470;2023-05-07T02:59:33;6.19;118.99
70867;HTU21D;58487;53.474;49.470;2023-05-07T03:01:59;6.24;118.99
70867;HTU21D;58487;53.474;49.470;2023-05-07T03:04:26;6.22;118.99
70867;HTU21D;58487;53.474;49.470;2023-05-07T03:06:52;6.09;118.99
70867;HTU21D;58487;53.474;49.470;2023-05-07T03:09:18;6.12;118.99
70867;HTU21D;58487;53.474;49.470;2023-05-07T03:11:45;6.13;118.99
70867;HTU21D;58487;53.474;49.470;2023-05-07T03:14:11;6.21;118.99
70867;HTU21D;58487;53.474;49.470;2023-05-07T03:16:37;6.28;118.99
70867;HTU21D;58487;53.474;49.470;2023-05-07T03:19:04;6.39;118.99
70867;HTU21D;58487;53.474;49.470;2023-05-07T03:21:30;6.46;118.99
70867;HTU21D;58487;53.474;49.470;2023-05-07T03:23:56;6.42;118.99
70867;HTU21D;58487;53.474;49.470;2023-05-07T03:26:22;6.37;118.99
70867;HTU21D;58487;53.474;49.470;2023-05-07T03:28:48;6.50;118.99
70867;HTU21D;58487;53.474;49.470;2023-05-07T03:31:15;6.64;118.99
70867;HTU21D;58487;53.474;49.470;2023-05-07T03:33:55;6.61;118.99
70867;HTU21D;58487;53.474;49.470;2023-05-07T03:36:22;6.71;118.99
70867;HTU21D;58487;53.474;49.470;2023-05-07T03:38:49;6.71;118.99
70867;HTU21D;58487;53.474;49.470;2023-05-07T03:41:16;6.70;118.99
70867;HTU21D;58487;53.474;49.470;2023-05-07T03:43:42;6.79;118.99
70867;HTU21D;58487;53.474;49.470;2023-05-07T03:46:08;6.75;118.99
70867;HTU21D;58487;53.474;49.470;2023-05-07T03:48:35;6.81;118.99
70867;HTU21D;58487;53.474;49.470;2023-05-07T03:51:01;6.86;118.99
70867;HTU21D;58487;53.474;49.470;2023-05-07T03:53:27;6.82;118.99
70867;HTU21D;58487;53.474;49.470;2023-05-07T03:55:53;6.89;118.99
70867;HTU21D;58487;53.474;49.470;2023-05-07T03:58:19;6.90;118.99
70867;HTU21D;58487;53.474;49.470;2023-05-07T04:00:45;6.95;118.99
70867;HTU21D;58487;53.474;49.470;2023-05-07T04:03:12;6.95;118.99
70867;HTU21D;58487;53.474;49.470;2023-05-07T04:05:38;6.89;118.99
70867;HTU21D;58487;53.474;49.470;2023-05-07T04:08:04;6.86;118.99
70867;HTU21D;58487;53.474;49.470;2023-05-07T04:10:31;6.95;118.99
70867;HTU21D;58487;53.474;49.470;2023-05-07T04:12:57;7.05;118.99
70867;HTU21D;58487;53.474;49.470;2023-05-07T04:15:24;7.20;118.99
70867;HTU21D;58487;53.474;49.470;2023-05-07T04:17:50;7.05;118.99
70867;HTU21D;58487;53.474;49.470;2023-05-07T04:20:17;7.09;118.99
70867;HTU21D;58487;53.474;49.470;2023-05-07T04:22:43;7.13;118.99
70867;HTU21D;58487;53.474;49.470;2023-05-07T04:25:09;7.07;118.99
70867;HTU21D;58487;53.474;49.470;2023-05-07T04:27:36;7.13;118.99
70867;HTU21D;58487;53.474;49.470;2023-05-07T04:30:03;7.15;118.99
70867;HTU21D;58487;53.474;49.470;2023-05-07T04:32:29;7.07;118.99
70867;HTU21D;58487;53.474;49.470;2023-05-07T04:34:56;7.12;118.99
70867;HTU21D;58487;53.474;49.470;2023-05-07T04:37:22;7.23;118.99
70867;HTU21D;58487;53.474;49.470;2023-05-07T04:39:48;7.42;118.99
70867;HTU21D;58487;53.474;49.470;2023-05-07T04:42:16;7.49;118.99
70867;HTU21D;58487;53.474;49.470;2023-05-07T04:44:44;7.56;118.99
70867;HTU21D;58487;53.474;49.470;2023-05-07T04:47:11;7.55;118.99
70867;HTU21D;58487;53.474;49.470;2023-05-07T04:49:40;7.45;118.99
70867;HTU21D;58487;53.474;49.470;2023-05-07T04:52:06;7.54;118.99
70867;HTU21D;58487;53.474;49.470;2023-05-07T04:54:33;7.73;118.99
70867;HTU21D;58487;53.474;49.470;2023-05-07T04:56:59;7.85;118.99
70867;HTU21D;58487;53.474;49.470;2023-05-07T04:59:25;7.89;118.99
70867;HTU21D;58487;53.474;49.470;2023-05-07T05:01:51;7.99;118.99
70867;HTU21D;58487;53.474;49.470;2023-05-07T05:04:17;7.88;118.99
70867;HTU21D;58487;53.474;49.470;2023-05-07T05:06:44;7.88;118.99
70867;HTU21D;58487;53.474;49.470;2023-05-07T05:09:10;7.91;118.99
70867;HTU21D;58487;53.474;49.470;2023-05-07T05:11:36;7.99;118.99
70867;HTU21D;58487;53.474;49.470;2023-05-07T05:14:03;8.12;118.99
70867;HTU21D;58487;53.474;49.470;2023-05-07T05:16:29;8.20;118.99
70867;HTU21D;58487;53.474;49.470;2023-05-07T05:18:55;8.24;118.99
70867;HTU21D;58487;53.474;49.470;2023-05-07T05:21:21;8.34;118.99
70867;HTU21D;58487;53.474;49.470;2023-05-07T05:23:47;8.31;118.99
70867;HTU21D;58487;53.474;49.470;2023-05-07T05:26:14;8.01;118.99
70867;HTU21D;58487;53.474;49.470;2023-05-07T05:28:40;7.99;118.99
70867;HTU21D;58487;53.474;49.470;2023-05-07T05:31:06;8.02;118.99
70867;HTU21D;58487;53.474;49.470;2023-05-07T05:33:32;7.98;118.99
70867;HTU21D;58487;53.474;49.470;2023-05-07T05:35:59;8.08;118.99
70867;HTU21D;58487;53.474;49.470;2023-05-07T05:38:26;8.19;118.99
70867;HTU21D;58487;53.474;49.470;2023-05-07T05:40:52;8.03;118.99
70867;HTU21D;58487;53.474;49.470;2023-05-07T05:43:18;7.88;118.99
70867;HTU21D;58487;53.474;49.470;2023-05-07T05:45:44;7.85;118.99
70867;HTU21D;58487;53.474;49.470;2023-05-07T05:48:11;7.86;118.99
70867;HTU21D;58487;53.474;49.470;2023-05-07T05:50:37;8.06;118.99
70867;HTU21D;58487;53.474;49.470;2023-05-07T05:53:03;8.13;118.99
70867;HTU21D;58487;53.474;49.470;2023-05-07T05:55:30;8.34;118.99
70867;HTU21D;58487;53.474;49.470;2023-05-07T05:57:59;8.35;118.99
70867;HTU21D;58487;53.474;49.470;2023-05-07T06:00:26;8.35;118.99
70867;HTU21D;58487;53.474;49.470;2023-05-07T06:02:52;8.27;118.99
70867;HTU21D;58487;53.474;49.470;2023-05-07T06:05:18;8.49;118.99
70867;HTU21D;58487;53.474;49.470;2023-05-07T06:07:44;8.41;118.99
70867;HTU21D;58487;53.474;49.470;2023-05-07T06:10:11;8.39;118.99
70867;HTU21D;58487;53.474;49.470;2023-05-07T06:12:37;8.66;118.99
70867;HTU21D;58487;53.474;49.470;2023-05-07T06:15:04;8.55;118.99
70867;HTU21D;58487;53.474;49.470;2023-05-07T06:17:30;8.26;118.99
70867;HTU21D;58487;53.474;49.470;2023-05-07T06:19:56;8.42;118.99
70867;HTU21D;58487;53.474;49.470;2023-05-07T06:22:22;8.31;118.99
70867;HTU21D;58487;53.474;49.470;2023-05-07T06:24:48;8.47;118.99
70867;HTU21D;58487;53.474;49.470;2023-05-07T06:27:15;8.62;118.99
70867;HTU21D;58487;53.474;49.470;2023-05-07T06:29:41;8.62;118.99
70867;HTU21D;58487;53.474;49.470;2023-05-07T06:32:12;8.58;118.99
70867;HTU21D;58487;53.474;49.470;2023-05-07T06:34:39;8.76;118.99
70867;HTU21D;58487;53.474;49.470;2023-05-07T06:37:06;8.88;118.99
70867;HTU21D;58487;53.474;49.470;2023-05-07T06:39:33;8.63;118.99
70867;HTU21D;58487;53.474;49.470;2023-05-07T06:42:02;8.71;118.99
70867;HTU21D;58487;53.474;49.470;2023-05-07T06:44:30;8.83;118.99
70867;HTU21D;58487;53.474;49.470;2023-05-07T06:46:56;9.01;118.99
70867;HTU21D;58487;53.474;49.470;2023-05-07T06:49:23;9.14;118.99
70867;HTU21D;58487;53.474;49.470;2023-05-07T06:51:49;8.94;118.99
70867;HTU21D;58487;53.474;49.470;2023-05-07T06:54:15;8.71;118.99
70867;HTU21D;58487;53.474;49.470;2023-05-07T06:56:41;8.41;118.99
70867;HTU21D;58487;53.474;49.470;2023-05-07T06:59:07;8.55;118.99
70867;HTU21D;58487;53.474;49.470;2023-05-07T07:01:37;8.88;118.99
70867;HTU21D;58487;53.474;49.470;2023-05-07T07:04:03;8.92;118.99
70867;HTU21D;58487;53.474;49.470;2023-05-07T07:06:30;8.58;118.99
70867;HTU21D;58487;53.474;49.470;2023-05-07T07:08:58;8.70;118.99
70867;HTU21D;58487;53.474;49.470;2023-05-07T07:11:24;8.63;118.99
70867;HTU21D;58487;53.474;49.470;2023-05-07T07:13:53;8.72;118.99
70867;HTU21D;58487;53.474;49.470;2023-05-07T07:16:21;8.61;118.99
70867;HTU21D;58487;53.474;49.470;2023-05-07T07:18:52;8.70;118.99
70867;HTU21D;58487;53.474;49.470;2023-05-07T07:21:18;8.90;118.99
70867;HTU21D;58487;53.474;49.470;2023-05-07T07:23:47;9.16;118.99
70867;HTU21D;58487;53.474;49.470;2023-05-07T07:26:13;9.31;118.99
70867;HTU21D;58487;53.474;49.470;2023-05-07T07:28:46;9.39;118.99
70867;HTU21D;58487;53.474;49.470;2023-05-07T07:31:12;9.05;118.99
70867;HTU21D;58487;53.474;49.470;2023-05-07T07:33:39;8.77;118.99
70867;HTU21D;58487;53.474;49.470;2023-05-07T07:36:09;9.05;118.99
70867;HTU21D;58487;53.474;49.470;2023-05-07T07:38:36;9.02;118.99
70867;HTU21D;58487;53.474;49.470;2023-05-07T07:41:04;9.20;118.99
70867;HTU21D;58487;53.474;49.470;2023-05-07T07:43:30;9.34;118.99
70867;HTU21D;58487;53.474;49.470;2023-05-07T07:46:00;9.25;118.99
70867;HTU21D;58487;53.474;49.470;2023-05-07T07:48:26;9.12;118.99
70867;HTU21D;58487;53.474;49.470;2023-05-07T07:50:53;9.11;118.99
70867;HTU21D;58487;53.474;49.470;2023-05-07T07:53:22;8.92;118.99
70867;HTU21D;58487;53.474;49.470;2023-05-07T07:55:48;9.02;118.99
70867;HTU21D;58487;53.474;49.470;2023-05-07T07:58:15;8.93;118.99
70867;HTU21D;58487;53.474;49.470;2023-05-07T08:00:44;8.72;118.99
70867;HTU21D;58487;53.474;49.470;2023-05-07T08:03:10;8.89;118.99
70867;HTU21D;58487;53.474;49.470;2023-05-07T08:05:36;8.87;118.99
70867;HTU21D;58487;53.474;49.470;2023-05-07T08:08:04;8.91;118.99
70867;HTU21D;58487;53.474;49.470;2023-05-07T08:10:30;9.10;118.99
70867;HTU21D;58487;53.474;49.470;2023-05-07T08:13:00;9.30;118.99
70867;HTU21D;58487;53.474;49.470;2023-05-07T08:15:34;9.26;118.99
70867;HTU21D;58487;53.474;49.470;2023-05-07T08:18:02;9.53;118.99
70867;HTU21D;58487;53.474;49.470;2023-05-07T08:20:28;9.78;118.99
70867;HTU21D;58487;53.474;49.470;2023-05-07T08:22:54;9.50;118.99
70867;HTU21D;58487;53.474;49.470;2023-05-07T08:25:21;9.50;118.99
70867;HTU21D;58487;53.474;49.470;2023-05-07T08:27:47;9.46;118.99
70867;HTU21D;58487;53.474;49.470;2023-05-07T08:30:14;9.51;118.99
70867;HTU21D;58487;53.474;49.470;2023-05-07T08:32:41;9.52;118.99
70867;HTU21D;58487;53.474;49.470;2023-05-07T08:35:07;9.53;118.99
70867;HTU21D;58487;53.474;49.470;2023-05-07T08:37:34;9.74;118.99
70867;HTU21D;58487;53.474;49.470;2023-05-07T08:40:00;10.00;118.99
70867;HTU21D;58487;53.474;49.470;2023-05-07T08:42:28;9.57;118.99
70867;HTU21D;58487;53.474;49.470;2023-05-07T08:44:59;9.82;118.99
70867;HTU21D;58487;53.474;49.470;2023-05-07T08:47:31;10.21;118.99
70867;HTU21D;58487;53.474;49.470;2023-05-07T08:50:01;10.50;118.99
70867;HTU21D;58487;53.474;49.470;2023-05-07T08:52:29;10.49;118.99
70867;HTU21D;58487;53.474;49.470;2023-05-07T08:54:59;10.28;118.99
70867;HTU21D;58487;53.474;49.470;2023-05-07T08:57:26;10.29;118.99
70867;HTU21D;58487;53.474;49.470;2023-05-07T08:59:52;10.30;118.99
70867;HTU21D;58487;53.474;49.470;2023-05-07T09:02:27;10.11;118.99
70867;HTU21D;58487;53.474;49.470;2023-05-07T09:04:56;10.33;118.99
70867;HTU21D;58487;53.474;49.470;2023-05-07T09:07:24;10.16;118.99
70867;HTU21D;58487;53.474;49.470;2023-05-07T09:09:51;10.49;118.99
70867;HTU21D;58487;53.474;49.470;2023-05-07T09:12:18;10.48;118.99
70867;HTU21D;58487;53.474;49.470;2023-05-07T09:14:45;10.88;118.99
70867;HTU21D;58487;53.474;49.470;2023-05-07T09:17:12;10.59;118.99
70867;HTU21D;58487;53.474;49.470;2023-05-07T09:19:38;10.90;118.99
70867;HTU21D;58487;53.474;49.470;2023-05-07T09:22:05;10.88;118.99
70867;HTU21D;58487;53.474;49.470;2023-05-07T09:24:40;11.34;118.99
70867;HTU21D;58487;53.474;49.470;2023-05-07T09:27:07;11.33;118.99
70867;HTU21D;58487;53.474;49.470;2023-05-07T09:29:37;11.86;118.99
70867;HTU21D;58487;53.474;49.470;2023-05-07T09:32:07;12.36;118.99
70867;HTU21D;58487;53.474;49.470;2023-05-07T09:34:34;11.59;118.99
70867;HTU21D;58487;53.474;49.470;2023-05-07T09:37:01;11.07;118.99
70867;HTU21D;58487;53.474;49.470;2023-05-07T09:39:51;10.51;118.99
70867;HTU21D;58487;53.474;49.470;2023-05-07T09:42:23;11.03;118.99
70867;HTU21D;58487;53.474;49.470;2023-05-07T09:44:50;11.99;118.99
70867;HTU21D;58487;53.474;49.470;2023-05-07T09:47:23;12.87;118.99
70867;HTU21D;58487;53.474;49.470;2023-05-07T09:49:50;12.91;110.58
70867;HTU21D;58487;53.474;49.470;2023-05-07T09:52:19;13.31;117.05
70867;HTU21D;58487;53.474;49.470;2023-05-07T09:54:47;13.19;117.37
70867;HTU21D;58487;53.474;49.470;2023-05-07T09:57:14;13.38;110.58
70867;HTU21D;58487;53.474;49.470;2023-05-07T09:59:42;12.25;118.99
70867;HTU21D;58487;53.474;49.470;2023-05-07T10:02:09;11.52;118.99
70867;HTU21D;58487;53.474;49.470;2023-05-07T10:04:37;11.40;118.99
70867;HTU21D;58487;53.474;49.470;2023-05-07T10:07:04;11.03;118.99
70867;HTU21D;58487;53.474;49.470;2023-05-07T10:09:30;10.96;118.99
70867;HTU21D;58487;53.474;49.470;2023-05-07T10:11:58;10.66;118.99
70867;HTU21D;58487;53.474;49.470;2023-05-07T10:14:25;11.15;118.99
70867;HTU21D;58487;53.474;49.470;2023-05-07T10:16:53;11.14;118.99
70867;HTU21D;58487;53.474;49.470;2023-05-07T10:19:20;11.97;118.99
70867;HTU21D;58487;53.474;49.470;2023-05-07T10:21:55;13.11;118.99
70867;HTU21D;58487;53.474;49.470;2023-05-07T10:24:31;14.04;118.99
70867;HTU21D;58487;53.474;49.470;2023-05-07T10:26:59;14.58;118.99
70867;HTU21D;58487;53.474;49.470;2023-05-07T10:34:26;12.34;118.99
70867;HTU21D;58487;53.474;49.470;2023-05-07T10:36:55;11.66;118.99
70867;HTU21D;58487;53.474;49.470;2023-05-07T10:39:22;11.13;118.99
70867;HTU21D;58487;53.474;49.470;2023-05-07T10:41:48;10.99;118.99
70867;HTU21D;58487;53.474;49.470;2023-05-07T10:44:29;12.00;116.25
70867;HTU21D;58487;53.474;49.470;2023-05-07T10:49:30;13.59;118.99
70867;HTU21D;58487;53.474;49.470;2023-05-07T10:52:14;14.28;116.12
70867;HTU21D;58487;53.474;49.470;2023-05-07T10:54:41;14.86;115.56
70867;HTU21D;58487;53.474;49.470;2023-05-07T10:57:32;14.99;118.89
70867;HTU21D;58487;53.474;49.470;2023-05-07T10:59:59;13.32;115.96
70867;HTU21D;58487;53.474;49.470;2023-05-07T11:05:41;12.97;118.99
70867;HTU21D;58487;53.474;49.470;2023-05-07T11:08:08;13.95;115.91
70867;HTU21D;58487;53.474;49.470;2023-05-07T11:13:17;15.75;115.48
70867;HTU21D;58487;53.474;49.470;2023-05-07T11:15:46;16.12;116.45
70867;HTU21D;58487;53.474;49.470;2023-05-07T11:18:15;16.06;118.99
70867;HTU21D;58487;53.474;49.470;2023-05-07T11:26:07;14.00;118.99
70867;HTU21D;58487;53.474;49.470;2023-05-07T11:28:38;13.11;118.99
70867;HTU21D;58487;53.474;49.470;2023-05-07T11:31:05;12.52;118.99
70867;HTU21D;58487;53.474;49.470;2023-05-07T11:33:31;12.23;118.99
70867;HTU21D;58487;53.474;49.470;2023-05-07T11:36:04;12.18;118.99
70867;HTU21D;58487;53.474;49.470;2023-05-07T11:38:35;12.25;118.99
70867;HTU21D;58487;53.474;49.470;2023-05-07T11:41:01;13.19;118.99
70867;HTU21D;58487;53.474;49.470;2023-05-07T11:43:32;14.10;118.99
70867;HTU21D;58487;53.474;49.470;2023-05-07T11:46:12;14.96;118.99
70867;HTU21D;58487;53.474;49.470;2023-05-07T11:48:40;15.29;118.99
70867;HTU21D;58487;53.474;49.470;2023-05-07T11:51:07;15.09;118.99
70867;HTU21D;58487;53.474;49.470;2023-05-07T11:53:45;14.83;118.99
70867;HTU21D;58487;53.474;49.470;2023-05-07T11:56:13;14.30;117.58
70867;HTU21D;58487;53.474;49.470;2023-05-07T11:58:40;13.65;118.99
70867;HTU21D;58487;53.474;49.470;2023-05-07T12:01:11;13.15;118.99
70867;HTU21D;58487;53.474;49.470;2023-05-07T12:03:40;12.99;118.99
70867;HTU21D;58487;53.474;49.470;2023-05-07T12:06:12;13.17;118.99
70867;HTU21D;58487;53.474;49.470;2023-05-07T12:08:40;13.39;118.99
70867;HTU21D;58487;53.474;49.470;2023-05-07T12:11:23;13.20;118.99
70867;HTU21D;58487;53.474;49.470;2023-05-07T12:13:49;14.06;118.99
70867;HTU21D;58487;53.474;49.470;2023-05-07T12:16:15;14.25;118.99
70867;HTU21D;58487;53.474;49.470;2023-05-07T12:18:45;14.59;118.99
70867;HTU21D;58487;53.474;49.470;2023-05-07T12:21:11;15.31;118.99
70867;HTU21D;58487;53.474;49.470;2023-05-07T12:23:38;15.04;118.99
70867;HTU21D;58487;53.474;49.470;2023-05-07T12:26:05;13.98;118.99
70867;HTU21D;58487;53.474;49.470;2023-05-07T12:28:37;13.73;118.99
70867;HTU21D;58487;53.474;49.470;2023-05-07T12:31:04;13.82;118.99
70867;HTU21D;58487;53.474;49.470;2023-05-07T12:33:31;14.52;118.99
70867;HTU21D;58487;53.474;49.470;2023-05-07T12:35:58;14.73;118.99
70867;HTU21D;58487;53.474;49.470;2023-05-07T12:38:35;14.85;118.99
70867;HTU21D;58487;53.474;49.470;2023-05-07T12:41:02;14.39;118.99
70867;HTU21D;58487;53.474;49.470;2023-05-07T12:43:31;13.48;118.99
70867;HTU21D;58487;53.474;49.470;2023-05-07T12:46:00;13.15;118.99
70867;HTU21D;58487;53.474;49.470;2023-05-07T12:48:27;12.66;118.99
70867;HTU21D;58487;53.474;49.470;2023-05-07T12:50:54;12.59;118.99
70867;HTU21D;58487;53.474;49.470;2023-05-07T12:53:23;12.46;118.99
70867;HTU21D;58487;53.474;49.470;2023-05-07T12:55:51;12.65;118.99
70867;HTU21D;58487;53.474;49.470;2023-05-07T12:58:26;12.55;118.99
70867;HTU21D;58487;53.474;49.470;2023-05-07T13:00:54;12.64;118.99
70867;HTU21D;58487;53.474;49.470;2023-05-07T13:03:31;13.09;118.99
70867;HTU21D;58487;53.474;49.470;2023-05-07T13:06:03;13.15;118.99
70867;HTU21D;58487;53.474;49.470;2023-05-07T13:08:35;12.59;118.99
70867;HTU21D;58487;53.474;49.470;2023-05-07T13:11:04;12.25;118.99
70867;HTU21D;58487;53.474;49.470;2023-05-07T13:13:31;12.25;118.99
70867;HTU21D;58487;53.474;49.470;2023-05-07T13:15:57;12.28;118.99
70867;HTU21D;58487;53.474;49.470;2023-05-07T13:18:28;12.28;118.99
70867;HTU21D;58487;53.474;49.470;2023-05-07T13:20:55;12.42;118.99
70867;HTU21D;58487;53.474;49.470;2023-05-07T13:23:21;12.47;118.99
70867;HTU21D;58487;53.474;49.470;2023-05-07T13:25:48;12.52;118.99
70867;HTU21D;58487;53.474;49.470;2023-05-07T13:28:15;12.77;118.99
70867;HTU21D;58487;53.474;49.470;2023-05-07T13:30:42;12.94;118.99
70867;HTU21D;58487;53.474;49.470;2023-05-07T13:33:09;12.91;118.99
70867;HTU21D;58487;53.474;49.470;2023-05-07T13:35:35;12.86;118.99
70867;HTU21D;58487;53.474;49.470;2023-05-07T13:38:01;12.19;118.99
70867;HTU21D;58487;53.474;49.470;2023-05-07T13:40:28;11.99;118.99
70867;HTU21D;58487;53.474;49.470;2023-05-07T13:42:57;12.67;118.99
70867;HTU21D;58487;53.474;49.470;2023-05-07T13:45:25;12.61;116.63
70867;HTU21D;58487;53.474;49.470;2023-05-07T13:47:56;12.18;118.99
70867;HTU21D;58487;53.474;49.470;2023-05-07T13:50:23;12.01;118.99
70867;HTU21D;58487;53.474;49.470;2023-05-07T13:52:49;11.90;118.99
70867;HTU21D;58487;53.474;49.470;2023-05-07T13:55:19;12.03;118.99
70867;HTU21D;58487;53.474;49.470;2023-05-07T13:57:46;11.96;118.99
70867;HTU21D;58487;53.474;49.470;2023-05-07T14:00:13;12.92;118.99
70867;HTU21D;58487;53.474;49.470;2023-05-07T14:02:40;13.64;118.99
70867;HTU21D;58487;53.474;49.470;2023-05-07T14:05:07;13.01;118.99
70867;HTU21D;58487;53.474;49.470;2023-05-07T14:07:37;13.94;118.99
70867;HTU21D;58487;53.474;49.470;2023-05-07T14:10:04;14.64;118.99
70867;HTU21D;58487;53.474;49.470;2023-05-07T14:12:32;13.44;118.99
70867;HTU21D;58487;53.474;49.470;2023-05-07T14:14:59;12.81;118.99
70867;HTU21D;58487;53.474;49.470;2023-05-07T14:17:25;13.33;118.99
70867;HTU21D;58487;53.474;49.470;2023-05-07T14:19:53;14.78;118.99
70867;HTU21D;58487;53.474;49.470;2023-05-07T14:22:21;15.24;118.99
70867;HTU21D;58487;53.474;49.470;2023-05-07T14:24:49;14.92;118.99
70867;HTU21D;58487;53.474;49.470;2023-05-07T14:27:16;14.72;118.99
70867;HTU21D;58487;53.474;49.470;2023-05-07T14:29:42;14.81;118.99
70867;HTU21D;58487;53.474;49.470;2023-05-07T14:32:09;15.52;118.99
70867;HTU21D;58487;53.474;49.470;2023-05-07T14:34:35;14.97;118.99
70867;HTU21D;58487;53.474;49.470;2023-05-07T14:37:01;15.45;118.99
70867;HTU21D;58487;53.474;49.470;2023-05-07T14:39:28;14.80;118.99
70867;HTU21D;58487;53.474;49.470;2023-05-07T14:41:54;13.40;115.44
70867;HTU21D;58487;53.474;49.470;2023-05-07T14:44:21;12.60;118.99
70867;HTU21D;58487;53.474;49.470;2023-05-07T14:46:48;12.42;118.99
70867;HTU21D;58487;53.474;49.470;2023-05-07T14:49:14;12.12;118.99
70867;HTU21D;58487;53.474;49.470;2023-05-07T14:51:44;11.97;118.99
70867;HTU21D;58487;53.474;49.470;2023-05-07T14:54:12;11.70;118.99
70867;HTU21D;58487;53.474;49.470;2023-05-07T14:56:38;11.34;118.99
70867;HTU21D;58487;53.474;49.470;2023-05-07T14:59:05;11.12;118.99
70867;HTU21D;58487;53.474;49.470;2023-05-07T15:01:31;10.95;118.99
70867;HTU21D;58487;53.474;49.470;2023-05-07T15:03:58;10.88;118.99
70867;HTU21D;58487;53.474;49.470;2023-05-07T15:06:24;10.87;118.99
70867;HTU21D;58487;53.474;49.470;2023-05-07T15:08:51;10.96;118.99
70867;HTU21D;58487;53.474;49.470;2023-05-07T15:11:20;10.94;118.99
70867;HTU21D;58487;53.474;49.470;2023-05-07T15:13:46;10.94;118.99
70867;HTU21D;58487;53.474;49.470;2023-05-07T15:16:12;10.84;118.99